Terminal Aerodrome Forecast
Issued by NWS

Home | Current Version | Previous Version | Text Only | Print | Product List | Glossary On
Versions: 1 2 3 4 5 6 7 8 9 10 11 12 13 14 15 16 17 18 19 20 21 22 23 24 25 26 27 28 29 30 31
000
FTAK31 PANC 011456 AAA
TAFADL
TAF AMD
PADL 011456Z 0115/0212 VRB03KT P6SM SCT070
      TEMPO 0115/0118 1/4SM FG OVC002
     FM011800 15006KT P6SM OVC050
     FM020000 20005KT P6SM VCTS OVC050CB
     FM020800 VRB03KT P6SM BKN100
      AMD LTD TO CLD VIS AND WIND TIL 011600=

USA.gov is the U.S. government's official web portal to all federal, state and local government web resources and services.